sensor_id;sensor_type;location;lat;lon;timestamp;temperature;humidity
7307;DHT22;3694;48.732;9.248;2022-09-20T00:01:14;7.60;99.90
7307;DHT22;3694;48.732;9.248;2022-09-20T00:03:42;7.70;99.90
7307;DHT22;3694;48.732;9.248;2022-09-20T00:06:11;7.80;99.90
7307;DHT22;3694;48.732;9.248;2022-09-20T00:08:37;7.80;99.90
7307;DHT22;3694;48.732;9.248;2022-09-20T00:11:08;7.80;99.90
7307;DHT22;3694;48.732;9.248;2022-09-20T00:13:36;8.00;99.90
7307;DHT22;3694;48.732;9.248;2022-09-20T00:16:11;7.90;99.90
7307;DHT22;3694;48.732;9.248;2022-09-20T00:18:38;8.00;99.90
7307;DHT22;3694;48.732;9.248;2022-09-20T00:21:04;8.00;99.90
7307;DHT22;3694;48.732;9.248;2022-09-20T00:23:30;8.00;99.90
7307;DHT22;3694;48.732;9.248;2022-09-20T00:25:59;7.90;99.90
7307;DHT22;3694;48.732;9.248;2022-09-20T00:28:25;7.80;99.90
7307;DHT22;3694;48.732;9.248;2022-09-20T00:30:52;7.80;99.90
7307;DHT22;3694;48.732;9.248;2022-09-20T00:33:18;7.70;99.90
7307;DHT22;3694;48.732;9.248;2022-09-20T00:35:44;7.70;99.90
7307;DHT22;3694;48.732;9.248;2022-09-20T00:38:10;7.70;99.90
7307;DHT22;3694;48.732;9.248;2022-09-20T00:40:38;7.90;99.90
7307;DHT22;3694;48.732;9.248;2022-09-20T00:43:04;7.70;99.90
7307;DHT22;3694;48.732;9.248;2022-09-20T00:45:30;7.70;99.90
7307;DHT22;3694;48.732;9.248;2022-09-20T00:50:39;7.80;99.90
7307;DHT22;3694;48.732;9.248;2022-09-20T00:53:30;7.80;99.90
7307;DHT22;3694;48.732;9.248;2022-09-20T00:56:04;7.80;99.90
7307;DHT22;3694;48.732;9.248;2022-09-20T00:58:37;7.70;99.90
7307;DHT22;3694;48.732;9.248;2022-09-20T01:01:04;7.70;99.90
7307;DHT22;3694;48.732;9.248;2022-09-20T01:03:30;7.70;99.90
7307;DHT22;3694;48.732;9.248;2022-09-20T01:06:00;7.70;99.90
7307;DHT22;3694;48.732;9.248;2022-09-20T01:08:27;7.70;99.90
7307;DHT22;3694;48.732;9.248;2022-09-20T01:10:53;7.60;99.90
7307;DHT22;3694;48.732;9.248;2022-09-20T01:13:18;7.60;99.90
7307;DHT22;3694;48.732;9.248;2022-09-20T01:15:45;7.60;99.90
7307;DHT22;3694;48.732;9.248;2022-09-20T01:18:12;7.50;99.90
7307;DHT22;3694;48.732;9.248;2022-09-20T01:20:41;7.50;99.90
7307;DHT22;3694;48.732;9.248;2022-09-20T01:23:26;7.50;99.90
7307;DHT22;3694;48.732;9.248;2022-09-20T01:28:47;7.50;99.90
7307;DHT22;3694;48.732;9.248;2022-09-20T01:31:27;7.50;99.90
7307;DHT22;3694;48.732;9.248;2022-09-20T01:33:58;7.50;99.90
7307;DHT22;3694;48.732;9.248;2022-09-20T01:36:51;7.40;99.90
7307;DHT22;3694;48.732;9.248;2022-09-20T01:42:07;7.40;99.90
7307;DHT22;3694;48.732;9.248;2022-09-20T01:44:38;7.50;99.90
7307;DHT22;3694;48.732;9.248;2022-09-20T01:47:19;7.60;99.90
7307;DHT22;3694;48.732;9.248;2022-09-20T01:49:57;7.60;99.90
7307;DHT22;3694;48.732;9.248;2022-09-20T01:52:38;7.60;99.90
7307;DHT22;3694;48.732;9.248;2022-09-20T01:58:06;7.70;99.90
7307;DHT22;3694;48.732;9.248;2022-09-20T02:00:57;7.70;99.90
7307;DHT22;3694;48.732;9.248;2022-09-20T02:03:52;7.70;99.90
7307;DHT22;3694;48.732;9.248;2022-09-20T02:09:22;7.70;99.90
7307;DHT22;3694;48.732;9.248;2022-09-20T02:12:27;7.70;99.90
7307;DHT22;3694;48.732;9.248;2022-09-20T02:15:20;7.70;99.90
7307;DHT22;3694;48.732;9.248;2022-09-20T02:21:19;7.60;99.90
7307;DHT22;3694;48.732;9.248;2022-09-20T02:26:55;7.60;99.90
7307;DHT22;3694;48.732;9.248;2022-09-20T02:32:52;7.60;99.90
7307;DHT22;3694;48.732;9.248;2022-09-20T02:38:10;7.60;99.90
7307;DHT22;3694;48.732;9.248;2022-09-20T02:41:03;7.70;99.90
7307;DHT22;3694;48.732;9.248;2022-09-20T02:46:40;7.60;99.90
7307;DHT22;3694;48.732;9.248;2022-09-20T02:52:15;7.60;99.90
7307;DHT22;3694;48.732;9.248;2022-09-20T02:54:59;7.60;99.90
7307;DHT22;3694;48.732;9.248;2022-09-20T02:57:44;7.70;99.90
7307;DHT22;3694;48.732;9.248;2022-09-20T03:00:24;7.70;99.90
7307;DHT22;3694;48.732;9.248;2022-09-20T03:09:01;7.90;99.90
7307;DHT22;3694;48.732;9.248;2022-09-20T03:14:32;8.00;99.90
7307;DHT22;3694;48.732;9.248;2022-09-20T03:17:09;8.30;99.90
7307;DHT22;3694;48.732;9.248;2022-09-20T03:27:43;8.00;99.90
7307;DHT22;3694;48.732;9.248;2022-09-20T03:36:20;7.60;99.90
7307;DHT22;3694;48.732;9.248;2022-09-20T03:39:00;7.50;99.90
7307;DHT22;3694;48.732;9.248;2022-09-20T03:46:44;7.50;99.90
7307;DHT22;3694;48.732;9.248;2022-09-20T03:55:13;7.70;99.90
7307;DHT22;3694;48.732;9.248;2022-09-20T03:58:23;7.70;99.90
7307;DHT22;3694;48.732;9.248;2022-09-20T04:04:00;7.70;99.90
7307;DHT22;3694;48.732;9.248;2022-09-20T04:15:00;7.80;99.90
7307;DHT22;3694;48.732;9.248;2022-09-20T04:17:53;7.90;99.90
7307;DHT22;3694;48.732;9.248;2022-09-20T04:20:42;7.90;99.90
7307;DHT22;3694;48.732;9.248;2022-09-20T04:26:01;7.90;99.90
7307;DHT22;3694;48.732;9.248;2022-09-20T04:28:45;7.90;99.90
7307;DHT22;3694;48.732;9.248;2022-09-20T04:33:48;7.90;99.90
7307;DHT22;3694;48.732;9.248;2022-09-20T04:39:33;7.90;99.90
7307;DHT22;3694;48.732;9.248;2022-09-20T04:45:06;7.90;99.90
7307;DHT22;3694;48.732;9.248;2022-09-20T04:56:19;8.30;99.90
7307;DHT22;3694;48.732;9.248;2022-09-20T04:59:05;8.40;99.90
7307;DHT22;3694;48.732;9.248;2022-09-20T05:02:06;8.40;99.90
7307;DHT22;3694;48.732;9.248;2022-09-20T05:16:20;8.50;99.90
7307;DHT22;3694;48.732;9.248;2022-09-20T05:21:36;8.60;99.90
7307;DHT22;3694;48.732;9.248;2022-09-20T05:27:01;8.60;99.90
7307;DHT22;3694;48.732;9.248;2022-09-20T05:29:54;8.60;99.90
7307;DHT22;3694;48.732;9.248;2022-09-20T05:41:22;8.50;99.90
7307;DHT22;3694;48.732;9.248;2022-09-20T05:52:53;8.50;99.90
7307;DHT22;3694;48.732;9.248;2022-09-20T05:55:25;8.50;99.90
7307;DHT22;3694;48.732;9.248;2022-09-20T05:58:36;8.50;99.90
7307;DHT22;3694;48.732;9.248;2022-09-20T06:03:54;8.60;99.90
7307;DHT22;3694;48.732;9.248;2022-09-20T06:17:27;9.20;99.90
7307;DHT22;3694;48.732;9.248;2022-09-20T06:25:03;9.50;99.90
7307;DHT22;3694;48.732;9.248;2022-09-20T06:27:40;9.60;99.90
7307;DHT22;3694;48.732;9.248;2022-09-20T06:30:14;9.70;99.90
7307;DHT22;3694;48.732;9.248;2022-09-20T06:38:40;10.00;99.90
7307;DHT22;3694;48.732;9.248;2022-09-20T06:41:26;10.10;99.90
7307;DHT22;3694;48.732;9.248;2022-09-20T06:44:01;10.20;99.90
7307;DHT22;3694;48.732;9.248;2022-09-20T06:46:33;10.20;99.90
7307;DHT22;3694;48.732;9.248;2022-09-20T06:48:59;10.40;99.90
7307;DHT22;3694;48.732;9.248;2022-09-20T06:51:26;10.60;99.90
7307;DHT22;3694;48.732;9.248;2022-09-20T06:53:54;10.70;99.90
7307;DHT22;3694;48.732;9.248;2022-09-20T06:56:23;11.10;99.90
7307;DHT22;3694;48.732;9.248;2022-09-20T06:58:49;11.90;99.90
7307;DHT22;3694;48.732;9.248;2022-09-20T07:01:17;12.50;99.90
7307;DHT22;3694;48.732;9.248;2022-09-20T07:03:43;13.00;99.90
7307;DHT22;3694;48.732;9.248;2022-09-20T07:06:09;12.80;99.90
7307;DHT22;3694;48.732;9.248;2022-09-20T07:08:34;12.80;99.90
7307;DHT22;3694;48.732;9.248;2022-09-20T07:11:11;13.10;99.90
7307;DHT22;3694;48.732;9.248;2022-09-20T07:13:37;13.50;99.90
7307;DHT22;3694;48.732;9.248;2022-09-20T07:16:05;13.90;99.90
7307;DHT22;3694;48.732;9.248;2022-09-20T07:18:30;14.10;99.90
7307;DHT22;3694;48.732;9.248;2022-09-20T07:20:58;14.00;99.90
7307;DHT22;3694;48.732;9.248;2022-09-20T07:23:28;13.80;99.90
7307;DHT22;3694;48.732;9.248;2022-09-20T07:25:56;13.60;99.60
7307;DHT22;3694;48.732;9.248;2022-09-20T07:28:29;13.50;99.90
7307;DHT22;3694;48.732;9.248;2022-09-20T07:30:54;13.50;99.90
7307;DHT22;3694;48.732;9.248;2022-09-20T07:33:20;13.10;99.90
7307;DHT22;3694;48.732;9.248;2022-09-20T07:35:51;13.10;99.90
7307;DHT22;3694;48.732;9.248;2022-09-20T07:38:21;13.30;99.90
7307;DHT22;3694;48.732;9.248;2022-09-20T07:40:56;13.10;99.60
7307;DHT22;3694;48.732;9.248;2022-09-20T07:43:23;13.00;99.90
7307;DHT22;3694;48.732;9.248;2022-09-20T07:45:53;13.40;99.90
7307;DHT22;3694;48.732;9.248;2022-09-20T07:48:40;13.40;99.90
7307;DHT22;3694;48.732;9.248;2022-09-20T07:51:10;13.60;99.90
7307;DHT22;3694;48.732;9.248;2022-09-20T07:53:37;13.80;99.60
7307;DHT22;3694;48.732;9.248;2022-09-20T07:58:35;14.60;98.50
7307;DHT22;3694;48.732;9.248;2022-09-20T08:01:05;15.00;95.60
7307;DHT22;3694;48.732;9.248;2022-09-20T08:03:32;14.50;95.60
7307;DHT22;3694;48.732;9.248;2022-09-20T08:06:03;14.50;97.20
7307;DHT22;3694;48.732;9.248;2022-09-20T08:08:33;14.30;97.00
7307;DHT22;3694;48.732;9.248;2022-09-20T08:11:14;14.40;97.10
7307;DHT22;3694;48.732;9.248;2022-09-20T08:13:43;14.80;97.10
7307;DHT22;3694;48.732;9.248;2022-09-20T08:16:10;14.90;95.50
7307;DHT22;3694;48.732;9.248;2022-09-20T08:18:36;15.40;93.50
7307;DHT22;3694;48.732;9.248;2022-09-20T08:21:04;15.50;92.80
7307;DHT22;3694;48.732;9.248;2022-09-20T08:23:40;15.10;93.10
7307;DHT22;3694;48.732;9.248;2022-09-20T08:26:09;14.90;94.70
7307;DHT22;3694;48.732;9.248;2022-09-20T08:28:39;15.10;94.10
7307;DHT22;3694;48.732;9.248;2022-09-20T08:31:10;15.10;93.70
7307;DHT22;3694;48.732;9.248;2022-09-20T08:33:36;14.80;94.50
7307;DHT22;3694;48.732;9.248;2022-09-20T08:36:03;14.70;93.30
7307;DHT22;3694;48.732;9.248;2022-09-20T08:38:31;14.80;93.80
7307;DHT22;3694;48.732;9.248;2022-09-20T08:41:01;14.60;92.80
7307;DHT22;3694;48.732;9.248;2022-09-20T08:43:34;14.50;92.90
7307;DHT22;3694;48.732;9.248;2022-09-20T08:46:02;14.40;94.10
7307;DHT22;3694;48.732;9.248;2022-09-20T08:48:31;14.20;94.20
7307;DHT22;3694;48.732;9.248;2022-09-20T08:51:02;14.20;93.00
7307;DHT22;3694;48.732;9.248;2022-09-20T08:53:28;14.10;92.70
7307;DHT22;3694;48.732;9.248;2022-09-20T08:55:55;14.00;92.00
7307;DHT22;3694;48.732;9.248;2022-09-20T08:58:24;14.50;93.60
7307;DHT22;3694;48.732;9.248;2022-09-20T09:00:50;14.90;93.00
7307;DHT22;3694;48.732;9.248;2022-09-20T09:03:17;15.30;92.50
7307;DHT22;3694;48.732;9.248;2022-09-20T09:05:51;15.30;91.90
7307;DHT22;3694;48.732;9.248;2022-09-20T09:08:24;15.00;91.70
7307;DHT22;3694;48.732;9.248;2022-09-20T09:11:02;14.80;91.50
7307;DHT22;3694;48.732;9.248;2022-09-20T09:14:12;14.90;92.00
7307;DHT22;3694;48.732;9.248;2022-09-20T09:16:59;15.50;92.10
7307;DHT22;3694;48.732;9.248;2022-09-20T09:19:32;15.60;90.80
7307;DHT22;3694;48.732;9.248;2022-09-20T09:22:07;15.80;86.90
7307;DHT22;3694;48.732;9.248;2022-09-20T09:24:33;15.10;83.80
7307;DHT22;3694;48.732;9.248;2022-09-20T09:27:25;15.10;84.20
7307;DHT22;3694;48.732;9.248;2022-09-20T09:29:55;14.70;87.70
7307;DHT22;3694;48.732;9.248;2022-09-20T09:32:26;14.20;86.20
7307;DHT22;3694;48.732;9.248;2022-09-20T09:34:54;13.60;87.60
7307;DHT22;3694;48.732;9.248;2022-09-20T09:37:30;13.10;90.10
7307;DHT22;3694;48.732;9.248;2022-09-20T09:40:15;12.90;91.10
7307;DHT22;3694;48.732;9.248;2022-09-20T09:43:14;12.50;92.00
7307;DHT22;3694;48.732;9.248;2022-09-20T09:45:43;12.40;92.20
7307;DHT22;3694;48.732;9.248;2022-09-20T09:48:26;12.20;93.10
7307;DHT22;3694;48.732;9.248;2022-09-20T09:51:10;12.20;94.40
7307;DHT22;3694;48.732;9.248;2022-09-20T09:53:37;12.30;93.50
7307;DHT22;3694;48.732;9.248;2022-09-20T10:04:59;13.70;92.50
7307;DHT22;3694;48.732;9.248;2022-09-20T10:07:43;14.00;92.00
7307;DHT22;3694;48.732;9.248;2022-09-20T10:15:51;13.50;92.20
7307;DHT22;3694;48.732;9.248;2022-09-20T10:26:34;13.80;91.10
7307;DHT22;3694;48.732;9.248;2022-09-20T10:31:57;14.50;89.40
7307;DHT22;3694;48.732;9.248;2022-09-20T10:37:19;15.10;87.60
7307;DHT22;3694;48.732;9.248;2022-09-20T10:39:58;15.00;86.10
7307;DHT22;3694;48.732;9.248;2022-09-20T10:43:04;15.20;86.30
7307;DHT22;3694;48.732;9.248;2022-09-20T10:46:05;15.20;85.00
7307;DHT22;3694;48.732;9.248;2022-09-20T10:48:45;15.30;84.20
7307;DHT22;3694;48.732;9.248;2022-09-20T10:51:47;15.20;84.10
7307;DHT22;3694;48.732;9.248;2022-09-20T10:57:31;16.40;81.70
7307;DHT22;3694;48.732;9.248;2022-09-20T11:00:17;16.30;82.00
7307;DHT22;3694;48.732;9.248;2022-09-20T11:02:54;15.90;80.20
7307;DHT22;3694;48.732;9.248;2022-09-20T11:05:33;15.70;80.20
7307;DHT22;3694;48.732;9.248;2022-09-20T11:08:22;15.70;80.40
7307;DHT22;3694;48.732;9.248;2022-09-20T11:10:58;15.50;79.50
7307;DHT22;3694;48.732;9.248;2022-09-20T11:13:37;15.30;79.80
7307;DHT22;3694;48.732;9.248;2022-09-20T11:21:15;15.30;80.90
7307;DHT22;3694;48.732;9.248;2022-09-20T11:26:41;15.30;76.00
7307;DHT22;3694;48.732;9.248;2022-09-20T11:29:39;15.10;75.40
7307;DHT22;3694;48.732;9.248;2022-09-20T11:35:02;15.80;77.60
7307;DHT22;3694;48.732;9.248;2022-09-20T11:37:38;16.20;76.20
7307;DHT22;3694;48.732;9.248;2022-09-20T11:40:24;16.30;75.50
7307;DHT22;3694;48.732;9.248;2022-09-20T11:42:51;16.30;75.90
7307;DHT22;3694;48.732;9.248;2022-09-20T11:45:19;16.00;72.50
7307;DHT22;3694;48.732;9.248;2022-09-20T11:47:50;16.10;76.60
7307;DHT22;3694;48.732;9.248;2022-09-20T11:56:18;16.20;72.90
7307;DHT22;3694;48.732;9.248;2022-09-20T11:58:50;16.30;73.40
7307;DHT22;3694;48.732;9.248;2022-09-20T12:03:56;15.60;72.10
7307;DHT22;3694;48.732;9.248;2022-09-20T12:06:25;15.00;73.70
7307;DHT22;3694;48.732;9.248;2022-09-20T12:08:51;14.60;73.70
7307;DHT22;3694;48.732;9.248;2022-09-20T12:11:30;14.40;74.40
7307;DHT22;3694;48.732;9.248;2022-09-20T12:14:16;14.20;73.70
7307;DHT22;3694;48.732;9.248;2022-09-20T12:16:44;14.00;72.90
7307;DHT22;3694;48.732;9.248;2022-09-20T12:24:23;13.80;75.30
7307;DHT22;3694;48.732;9.248;2022-09-20T12:26:51;13.80;76.00
7307;DHT22;3694;48.732;9.248;2022-09-20T12:31:51;13.80;75.70
7307;DHT22;3694;48.732;9.248;2022-09-20T12:39:19;13.50;75.40
7307;DHT22;3694;48.732;9.248;2022-09-20T12:47:19;13.80;72.20
7307;DHT22;3694;48.732;9.248;2022-09-20T12:55:31;15.20;71.80
7307;DHT22;3694;48.732;9.248;2022-09-20T13:00:39;16.00;67.40
7307;DHT22;3694;48.732;9.248;2022-09-20T13:05:44;16.40;66.50
7307;DHT22;3694;48.732;9.248;2022-09-20T13:08:24;16.90;67.10
7307;DHT22;3694;48.732;9.248;2022-09-20T13:13:43;17.10;67.70
7307;DHT22;3694;48.732;9.248;2022-09-20T13:19:02;16.90;67.90
7307;DHT22;3694;48.732;9.248;2022-09-20T13:21:31;16.40;67.80
7307;DHT22;3694;48.732;9.248;2022-09-20T13:23:58;16.40;71.70
7307;DHT22;3694;48.732;9.248;2022-09-20T13:26:32;16.50;72.50
7307;DHT22;3694;48.732;9.248;2022-09-20T13:28:58;16.70;67.40
7307;DHT22;3694;48.732;9.248;2022-09-20T13:31:25;16.20;66.40
7307;DHT22;3694;48.732;9.248;2022-09-20T13:33:51;15.80;65.50
7307;DHT22;3694;48.732;9.248;2022-09-20T13:36:25;15.50;66.10
7307;DHT22;3694;48.732;9.248;2022-09-20T13:38:54;15.80;66.90
7307;DHT22;3694;48.732;9.248;2022-09-20T13:41:20;16.10;65.10
7307;DHT22;3694;48.732;9.248;2022-09-20T13:43:47;16.20;65.80
7307;DHT22;3694;48.732;9.248;2022-09-20T13:46:15;16.00;64.00
7307;DHT22;3694;48.732;9.248;2022-09-20T13:48:41;16.00;64.60
7307;DHT22;3694;48.732;9.248;2022-09-20T13:51:24;16.40;67.00
7307;DHT22;3694;48.732;9.248;2022-09-20T13:53:50;16.70;64.60
7307;DHT22;3694;48.732;9.248;2022-09-20T13:56:19;16.70;64.80
7307;DHT22;3694;48.732;9.248;2022-09-20T13:58:47;16.60;67.10
7307;DHT22;3694;48.732;9.248;2022-09-20T14:01:39;16.50;65.70
7307;DHT22;3694;48.732;9.248;2022-09-20T14:04:15;16.40;67.00
7307;DHT22;3694;48.732;9.248;2022-09-20T14:06:41;16.10;66.60
7307;DHT22;3694;48.732;9.248;2022-09-20T14:09:17;15.70;65.90
7307;DHT22;3694;48.732;9.248;2022-09-20T14:11:44;15.20;67.20
7307;DHT22;3694;48.732;9.248;2022-09-20T14:14:12;14.80;69.20
7307;DHT22;3694;48.732;9.248;2022-09-20T14:16:41;14.30;68.30
7307;DHT22;3694;48.732;9.248;2022-09-20T14:19:15;14.20;68.80
7307;DHT22;3694;48.732;9.248;2022-09-20T14:21:42;13.80;70.90
7307;DHT22;3694;48.732;9.248;2022-09-20T14:24:24;13.60;72.50
7307;DHT22;3694;48.732;9.248;2022-09-20T14:27:03;13.40;73.90
7307;DHT22;3694;48.732;9.248;2022-09-20T14:29:40;13.10;76.50
7307;DHT22;3694;48.732;9.248;2022-09-20T14:37:30;12.80;80.30
7307;DHT22;3694;48.732;9.248;2022-09-20T14:39:59;12.60;80.00
7307;DHT22;3694;48.732;9.248;2022-09-20T14:42:42;12.50;80.30
7307;DHT22;3694;48.732;9.248;2022-09-20T14:45:30;12.40;80.30
7307;DHT22;3694;48.732;9.248;2022-09-20T14:48:43;12.40;79.20
7307;DHT22;3694;48.732;9.248;2022-09-20T14:50:45;12.40;78.50
7307;DHT22;3694;48.732;9.248;2022-09-20T14:55:38;12.40;79.70
7307;DHT22;3694;48.732;9.248;2022-09-20T14:58:12;12.40;79.80
7307;DHT22;3694;48.732;9.248;2022-09-20T15:03:29;12.50;79.20
7307;DHT22;3694;48.732;9.248;2022-09-20T15:05:55;12.60;78.70
7307;DHT22;3694;48.732;9.248;2022-09-20T15:08:21;12.70;78.70
7307;DHT22;3694;48.732;9.248;2022-09-20T15:10:47;12.80;77.90
7307;DHT22;3694;48.732;9.248;2022-09-20T15:13:13;12.80;78.50
7307;DHT22;3694;48.732;9.248;2022-09-20T15:15:39;13.00;79.30
7307;DHT22;3694;48.732;9.248;2022-09-20T15:18:17;13.20;76.80
7307;DHT22;3694;48.732;9.248;2022-09-20T15:20:44;13.30;78.20
7307;DHT22;3694;48.732;9.248;2022-09-20T15:23:10;13.40;78.80
7307;DHT22;3694;48.732;9.248;2022-09-20T15:25:36;13.50;78.00
7307;DHT22;3694;48.732;9.248;2022-09-20T15:28:01;13.60;77.80
7307;DHT22;3694;48.732;9.248;2022-09-20T15:30:27;13.60;79.10
7307;DHT22;3694;48.732;9.248;2022-09-20T15:32:52;13.60;76.50
7307;DHT22;3694;48.732;9.248;2022-09-20T15:35:18;13.60;77.50
7307;DHT22;3694;48.732;9.248;2022-09-20T15:37:44;13.60;76.90
7307;DHT22;3694;48.732;9.248;2022-09-20T15:40:10;13.70;77.10
7307;DHT22;3694;48.732;9.248;2022-09-20T15:42:36;13.70;75.70
7307;DHT22;3694;48.732;9.248;2022-09-20T15:45:11;13.80;76.40
7307;DHT22;3694;48.732;9.248;2022-09-20T15:47:38;13.70;73.40
7307;DHT22;3694;48.732;9.248;2022-09-20T15:50:07;13.80;73.90
7307;DHT22;3694;48.732;9.248;2022-09-20T15:52:34;13.80;73.60
7307;DHT22;3694;48.732;9.248;2022-09-20T15:55:01;13.70;76.00
7307;DHT22;3694;48.732;9.248;2022-09-20T15:57:29;13.60;70.70
7307;DHT22;3694;48.732;9.248;2022-09-20T15:59:54;13.50;72.50
7307;DHT22;3694;48.732;9.248;2022-09-20T16:02:20;13.30;73.10
7307;DHT22;3694;48.732;9.248;2022-09-20T16:04:46;13.10;72.10
7307;DHT22;3694;48.732;9.248;2022-09-20T16:07:12;12.90;74.00
7307;DHT22;3694;48.732;9.248;2022-09-20T16:09:40;12.60;73.70
7307;DHT22;3694;48.732;9.248;2022-09-20T16:12:05;12.50;72.90
7307;DHT22;3694;48.732;9.248;2022-09-20T16:14:31;12.30;74.80
7307;DHT22;3694;48.732;9.248;2022-09-20T16:16:56;12.10;75.00
7307;DHT22;3694;48.732;9.248;2022-09-20T16:19:22;12.10;75.40
7307;DHT22;3694;48.732;9.248;2022-09-20T16:21:54;12.00;76.40
7307;DHT22;3694;48.732;9.248;2022-09-20T16:24:34;11.80;78.30
7307;DHT22;3694;48.732;9.248;2022-09-20T16:27:02;11.70;77.30
7307;DHT22;3694;48.732;9.248;2022-09-20T16:29:29;11.70;76.50
7307;DHT22;3694;48.732;9.248;2022-09-20T16:31:55;11.60;77.50
7307;DHT22;3694;48.732;9.248;2022-09-20T16:34:30;11.50;78.50
7307;DHT22;3694;48.732;9.248;2022-09-20T16:36:58;11.40;78.40
7307;DHT22;3694;48.732;9.248;2022-09-20T16:39:25;11.20;79.40
7307;DHT22;3694;48.732;9.248;2022-09-20T16:41:53;11.00;79.40
7307;DHT22;3694;48.732;9.248;2022-09-20T16:44:21;11.00;78.70
7307;DHT22;3694;48.732;9.248;2022-09-20T16:46:47;10.80;79.70
7307;DHT22;3694;48.732;9.248;2022-09-20T16:49:12;10.70;80.70
7307;DHT22;3694;48.732;9.248;2022-09-20T16:51:40;10.50;82.90
7307;DHT22;3694;48.732;9.248;2022-09-20T16:54:09;10.30;82.80
7307;DHT22;3694;48.732;9.248;2022-09-20T16:56:37;10.20;83.20
7307;DHT22;3694;48.732;9.248;2022-09-20T16:59:04;10.10;83.60
7307;DHT22;3694;48.732;9.248;2022-09-20T17:01:30;10.10;84.20
7307;DHT22;3694;48.732;9.248;2022-09-20T17:03:57;10.00;85.30
7307;DHT22;3694;48.732;9.248;2022-09-20T17:06:24;9.90;86.10
7307;DHT22;3694;48.732;9.248;2022-09-20T17:08:54;9.80;89.10
7307;DHT22;3694;48.732;9.248;2022-09-20T17:11:26;9.70;88.90
7307;DHT22;3694;48.732;9.248;2022-09-20T17:13:53;9.60;89.60
7307;DHT22;3694;48.732;9.248;2022-09-20T17:16:27;9.50;90.70
7307;DHT22;3694;48.732;9.248;2022-09-20T17:21:21;9.30;92.40
7307;DHT22;3694;48.732;9.248;2022-09-20T17:23:56;9.20;92.90
7307;DHT22;3694;48.732;9.248;2022-09-20T17:26:24;9.10;93.70
7307;DHT22;3694;48.732;9.248;2022-09-20T17:28:53;9.10;94.40
7307;DHT22;3694;48.732;9.248;2022-09-20T17:31:21;9.10;94.60
7307;DHT22;3694;48.732;9.248;2022-09-20T17:33:48;9.10;95.10
7307;DHT22;3694;48.732;9.248;2022-09-20T17:36:17;9.00;95.50
7307;DHT22;3694;48.732;9.248;2022-09-20T17:38:52;9.10;96.10
7307;DHT22;3694;48.732;9.248;2022-09-20T17:41:18;9.00;95.80
7307;DHT22;3694;48.732;9.248;2022-09-20T17:43:45;9.10;96.00
7307;DHT22;3694;48.732;9.248;2022-09-20T17:46:20;9.10;95.90
7307;DHT22;3694;48.732;9.248;2022-09-20T17:48:49;9.10;96.50
7307;DHT22;3694;48.732;9.248;2022-09-20T17:51:17;9.00;96.60
7307;DHT22;3694;48.732;9.248;2022-09-20T17:53:44;9.00;97.00
7307;DHT22;3694;48.732;9.248;2022-09-20T17:56:11;8.90;97.20
7307;DHT22;3694;48.732;9.248;2022-09-20T17:58:37;8.90;97.60
7307;DHT22;3694;48.732;9.248;2022-09-20T18:01:07;8.80;98.00
7307;DHT22;3694;48.732;9.248;2022-09-20T18:03:39;8.80;98.60
7307;DHT22;3694;48.732;9.248;2022-09-20T18:06:17;8.70;98.80
7307;DHT22;3694;48.732;9.248;2022-09-20T18:09:04;8.70;99.10
7307;DHT22;3694;48.732;9.248;2022-09-20T18:11:39;8.60;99.80
7307;DHT22;3694;48.732;9.248;2022-09-20T18:14:07;8.50;99.90
7307;DHT22;3694;48.732;9.248;2022-09-20T18:16:35;8.40;99.90
7307;DHT22;3694;48.732;9.248;2022-09-20T18:19:02;8.30;99.90
7307;DHT22;3694;48.732;9.248;2022-09-20T18:21:30;8.30;99.90
7307;DHT22;3694;48.732;9.248;2022-09-20T18:23:56;8.20;99.90
7307;DHT22;3694;48.732;9.248;2022-09-20T18:26:24;8.30;99.90
7307;DHT22;3694;48.732;9.248;2022-09-20T18:31:32;8.30;99.90
7307;DHT22;3694;48.732;9.248;2022-09-20T18:34:01;8.20;99.90
7307;DHT22;3694;48.732;9.248;2022-09-20T18:36:28;8.20;99.90
7307;DHT22;3694;48.732;9.248;2022-09-20T18:38:55;8.20;99.90
7307;DHT22;3694;48.732;9.248;2022-09-20T18:41:23;8.00;99.90
7307;DHT22;3694;48.732;9.248;2022-09-20T18:43:50;7.90;99.90
7307;DHT22;3694;48.732;9.248;2022-09-20T18:46:16;7.70;99.90
7307;DHT22;3694;48.732;9.248;2022-09-20T18:48:45;7.60;99.90
7307;DHT22;3694;48.732;9.248;2022-09-20T18:51:10;7.60;99.90
7307;DHT22;3694;48.732;9.248;2022-09-20T18:53:37;7.50;99.90
7307;DHT22;3694;48.732;9.248;2022-09-20T18:56:12;7.40;99.90
7307;DHT22;3694;48.732;9.248;2022-09-20T18:58:42;7.30;99.90
7307;DHT22;3694;48.732;9.248;2022-09-20T19:04:41;7.10;99.90
7307;DHT22;3694;48.732;9.248;2022-09-20T19:15:14;6.90;99.90
7307;DHT22;3694;48.732;9.248;2022-09-20T19:23:49;6.90;99.90
7307;DHT22;3694;48.732;9.248;2022-09-20T19:26:26;7.00;99.90
7307;DHT22;3694;48.732;9.248;2022-09-20T19:28:54;7.10;99.90
7307;DHT22;3694;48.732;9.248;2022-09-20T19:31:31;7.20;99.90
7307;DHT22;3694;48.732;9.248;2022-09-20T19:33:59;7.30;99.90
7307;DHT22;3694;48.732;9.248;2022-09-20T19:36:49;7.30;99.90
7307;DHT22;3694;48.732;9.248;2022-09-20T19:50:43;7.80;99.90
7307;DHT22;3694;48.732;9.248;2022-09-20T19:53:13;7.90;99.90
7307;DHT22;3694;48.732;9.248;2022-09-20T19:55:44;8.10;99.90
7307;DHT22;3694;48.732;9.248;2022-09-20T19:58:11;8.20;99.90
7307;DHT22;3694;48.732;9.248;2022-09-20T20:00:37;8.20;99.90
7307;DHT22;3694;48.732;9.248;2022-09-20T20:03:04;8.30;99.90
7307;DHT22;3694;48.732;9.248;2022-09-20T20:05:30;8.20;99.90
7307;DHT22;3694;48.732;9.248;2022-09-20T20:08:16;8.00;99.90
7307;DHT22;3694;48.732;9.248;2022-09-20T20:11:13;7.80;99.90
7307;DHT22;3694;48.732;9.248;2022-09-20T20:19:34;7.50;99.90
7307;DHT22;3694;48.732;9.248;2022-09-20T20:25:45;7.10;99.90
7307;DHT22;3694;48.732;9.248;2022-09-20T20:28:12;7.00;99.90
7307;DHT22;3694;48.732;9.248;2022-09-20T20:30:37;6.80;99.90
7307;DHT22;3694;48.732;9.248;2022-09-20T20:33:03;6.90;99.90
7307;DHT22;3694;48.732;9.248;2022-09-20T20:35:30;6.80;99.90
7307;DHT22;3694;48.732;9.248;2022-09-20T20:37:56;6.80;99.90
7307;DHT22;3694;48.732;9.248;2022-09-20T20:40:22;6.90;99.90
7307;DHT22;3694;48.732;9.248;2022-09-20T20:42:47;6.90;99.90
7307;DHT22;3694;48.732;9.248;2022-09-20T20:45:14;6.90;99.90
7307;DHT22;3694;48.732;9.248;2022-09-20T20:47:42;6.90;99.90
7307;DHT22;3694;48.732;9.248;2022-09-20T20:50:08;6.80;99.90
7307;DHT22;3694;48.732;9.248;2022-09-20T20:52:37;6.90;99.90
7307;DHT22;3694;48.732;9.248;2022-09-20T20:55:03;6.90;99.90
7307;DHT22;3694;48.732;9.248;2022-09-20T20:57:28;6.80;99.90
7307;DHT22;3694;48.732;9.248;2022-09-20T20:59:56;6.70;99.90
7307;DHT22;3694;48.732;9.248;2022-09-20T21:02:21;6.60;99.90
7307;DHT22;3694;48.732;9.248;2022-09-20T21:04:47;6.60;99.90
7307;DHT22;3694;48.732;9.248;2022-09-20T21:07:12;6.60;99.90
7307;DHT22;3694;48.732;9.248;2022-09-20T21:09:38;6.60;99.90
7307;DHT22;3694;48.732;9.248;2022-09-20T21:12:04;6.60;99.90
7307;DHT22;3694;48.732;9.248;2022-09-20T21:14:30;6.40;99.90
7307;DHT22;3694;48.732;9.248;2022-09-20T21:16:58;6.20;99.90
7307;DHT22;3694;48.732;9.248;2022-09-20T21:19:23;6.10;99.90
7307;DHT22;3694;48.732;9.248;2022-09-20T21:21:49;6.00;99.90
7307;DHT22;3694;48.732;9.248;2022-09-20T21:24:15;5.90;99.90
7307;DHT22;3694;48.732;9.248;2022-09-20T21:26:44;5.70;99.90
7307;DHT22;3694;48.732;9.248;2022-09-20T21:29:12;5.80;99.90
7307;DHT22;3694;48.732;9.248;2022-09-20T21:31:40;5.80;99.90
7307;DHT22;3694;48.732;9.248;2022-09-20T21:34:07;5.80;99.90
7307;DHT22;3694;48.732;9.248;2022-09-20T21:36:34;5.70;99.90
7307;DHT22;3694;48.732;9.248;2022-09-20T21:39:00;5.50;99.90
7307;DHT22;3694;48.732;9.248;2022-09-20T21:41:28;5.60;99.90